メインページ
METAR-TAF:

METAR-TAF

空港 :

ベナジル・ブット国際空港

イスラマバード, パキスタン

緯度: 33-37N, 経度: 073-06E, 海抜: 507m

現時点の気象観測

当レポートは17分前の12:00(UTC)に作成
北東の風 6kt
気温 17°C
湿度 68%
気圧 1015 hPa
視程: 7000m
高度4000ftの雲はほとんどない
高度8000ftの雲は散在している

METAR: OPRN 141200Z 05006KT 7000 FEW040 SCT080 17/11 Q1015 NOSIG RMK A2998

時間: 17:17 (12:17 UTC)

予報

当レポートは2時間47分前の09:30(UTC)に作成
予報は14日の 12時(UTC)から 15日の 18時(UTC)まで有効
南西の風 10kt、最大20ktの突風を伴う
視程: 6000m
高度3000ftの雲はほとんどない
高度4000ftの雲は散在している
高度10000ftの千切れ雲あり
近辺で激しい雷雨
14日の 15時(UTC)から 14日の 16時(UTC)まで徐々に
視程: 4000m
高度4000ftの雲はほとんどない
高度10000ftの雲は散在している
煙霧

TAF: OPRN 140930Z 1412/1518 23010G20KT 6000 VCTS FEW030 SCT040 BKN100 BECMG 1415/1416 4000 HZ FEW040 SCT100

4,000以上の空港の気象観測と天気予報(METAR報とTAF報)

利用可能な観測所は地図上に黄色い丸と赤い丸で示す。

丸の上にカーソルを重ねると観測所名を参照できる。

次にクリックすると気象観測と天気予報を参照できる。

マップの切り替え:黒色「×」印の緑ボタンをクリックして拡大、「-」印の緑ボタンをクリックして縮小、緑色の三角印をクリックして隣りの地図に切り替え


METAR-TAF: